Time;durP1;ratioP1;P1;durP2;ratioP2;P2;SDS_P1;SDS_P2;PMS_P1;PMS_P2;Temp;Humidity;BMP_temperature;BMP_pressure;BME280_temperature;BME280_humidity;BME280_pressure;Samples;Min_cycle;Max_cycle;Signal;HPM_P1;HPM_P2
2022/08/05 00:00:06;;;;;;;12.02;6.75;;;;;;;;;;4247676;33;20108;-71
2022/08/05 00:02:32;;;;;;;10.98;5.82;;;;;;;;;;4247512;33;20112;-67
2022/08/05 00:04:58;;;;;;;14.57;6.28;;;;;;;;;;4247411;33;20532;-68
2022/08/05 00:34:52;;;;;;;11.57;6.00;;;;;;;;;;4758806;28;20092;-65
2022/08/05 00:37:18;;;;;;;8.85;6.07;;;;;;;;;;4244623;33;20099;-65
2022/08/05 00:39:44;;;;;;;13.13;6.03;;;;;;;;;;4246578;33;20089;-65
2022/08/05 00:42:10;;;;;;;10.02;6.35;;;;;;;;;;4233736;33;20108;-65
2022/08/05 00:44:36;;;;;;;13.48;6.10;;;;;;;;;;4233750;33;20144;-65
2022/08/05 00:47:02;;;;;;;9.00;5.75;;;;;;;;;;4246932;33;20117;-70
2022/08/05 00:49:28;;;;;;;8.80;5.53;;;;;;;;;;4247016;33;20112;-71
2022/08/05 00:51:54;;;;;;;13.07;7.32;;;;;;;;;;4246854;33;20112;-65
2022/08/05 00:54:20;;;;;;;11.63;6.85;;;;;;;;;;4246819;33;20109;-64
2022/08/05 00:56:46;;;;;;;9.90;6.00;;;;;;;;;;4246915;33;20093;-66
2022/08/05 00:59:12;;;;;;;13.05;6.35;;;;;;;;;;4246740;33;20112;-64
2022/08/05 01:01:39;;;;;;;11.73;6.37;;;;;;;;;;4246980;33;20130;-66
2022/08/05 01:04:05;;;;;;;8.30;6.25;;;;;;;;;;4246645;33;20102;-66
2022/08/05 01:06:31;;;;;;;10.50;5.35;;;;;;;;;;4246552;33;20114;-68
2022/08/05 01:08:59;;;;;;;8.95;5.78;;;;;;;;;;4246692;33;20109;-68
2022/08/05 01:11:29;;;;;;;9.02;6.18;;;;;;;;;;4246068;33;20107;-67
2022/08/05 01:14:03;;;;;;;9.07;5.43;;;;;;;;;;4245907;33;20111;-65
2022/08/05 01:16:47;;;;;;;11.45;5.87;;;;;;;;;;4233651;33;20208;-65
2022/08/05 01:19:41;;;;;;;13.85;5.62;;;;;;;;;;4246826;33;20124;-66
2022/08/05 01:22:17;;;;;;;11.65;5.47;;;;;;;;;;4233505;33;20081;-65
2022/08/05 01:25:09;;;;;;;7.20;5.37;;;;;;;;;;4233503;33;20132;-66
2022/08/05 01:27:47;;;;;;;11.65;5.35;;;;;;;;;;4246533;33;20173;-65
2022/08/05 01:30:14;;;;;;;8.43;4.90;;;;;;;;;;4246428;33;20150;-65
2022/08/05 01:32:41;;;;;;;8.95;4.70;;;;;;;;;;4246797;33;20104;-65
2022/08/05 01:35:18;;;;;;;8.57;4.90;;;;;;;;;;4233167;33;20525;-65
2022/08/05 01:37:54;;;;;;;6.95;4.95;;;;;;;;;;4233428;33;20108;-64
2022/08/05 01:40:27;;;;;;;5.10;4.32;;;;;;;;;;4221639;33;20519;-65
2022/08/05 01:42:54;;;;;;;13.27;5.45;;;;;;;;;;4233569;33;20219;-65
2022/08/05 01:45:21;;;;;;;8.23;4.60;;;;;;;;;;4233172;33;20215;-66
2022/08/05 01:47:48;;;;;;;10.88;5.28;;;;;;;;;;4246520;33;20113;-66
2022/08/05 01:50:19;;;;;;;10.13;4.50;;;;;;;;;;4233324;33;20136;-66
2022/08/05 01:52:46;;;;;;;6.90;4.10;;;;;;;;;;4233467;33;20098;-65
2022/08/05 01:55:13;;;;;;;10.20;4.50;;;;;;;;;;4233381;33;20227;-66
2022/08/05 01:57:43;;;;;;;5.68;4.93;;;;;;;;;;4246258;33;20524;-66
2022/08/05 02:00:11;;;;;;;12.18;6.30;;;;;;;;;;4246340;33;20100;-67
2022/08/05 02:02:40;;;;;;;10.65;5.37;;;;;;;;;;4233353;33;20119;-66
2022/08/05 02:05:08;;;;;;;12.90;5.20;;;;;;;;;;4246181;33;20101;-66
2022/08/05 02:07:34;;;;;;;36.80;6.68;;;;;;;;;;4221314;33;20117;-66
2022/08/05 02:10:01;;;;;;;21.45;5.97;;;;;;;;;;4221625;33;20108;-65
2022/08/05 02:12:36;;;;;;;28.77;6.78;;;;;;;;;;4246331;33;20460;-66
2022/08/05 02:15:33;;;;;;;14.35;5.18;;;;;;;;;;4219302;33;20112;-66
2022/08/05 02:18:06;;;;;;;18.10;6.37;;;;;;;;;;4231895;33;20207;-66
2022/08/05 02:20:47;;;;;;;24.20;7.22;;;;;;;;;;4234272;33;20469;-65
2022/08/05 02:23:13;;;;;;;18.58;6.85;;;;;;;;;;4232731;33;20085;-65
2022/08/05 02:25:42;;;;;;;17.52;6.40;;;;;;;;;;4232452;33;20104;-65
2022/08/05 02:28:09;;;;;;;11.93;5.90;;;;;;;;;;4233298;33;20187;-65
2022/08/05 02:30:49;;;;;;;10.75;5.12;;;;;;;;;;4229689;33;20089;-65
2022/08/05 02:33:16;;;;;;;30.62;6.07;;;;;;;;;;4224227;33;20108;-64
2022/08/05 02:35:44;;;;;;;18.30;6.43;;;;;;;;;;4235000;33;20108;-65
2022/08/05 02:38:10;;;;;;;13.20;6.93;;;;;;;;;;4235435;33;20116;-64
2022/08/05 02:40:38;;;;;;;23.33;6.43;;;;;;;;;;4247436;33;20117;-64
2022/08/05 02:43:05;;;;;;;18.40;5.60;;;;;;;;;;4235275;33;20108;-64
2022/08/05 02:45:32;;;;;;;17.15;5.90;;;;;;;;;;4235247;33;20444;-64
2022/08/05 02:47:59;;;;;;;20.55;5.70;;;;;;;;;;4247924;33;20124;-64
2022/08/05 02:50:25;;;;;;;10.38;5.65;;;;;;;;;;4235170;33;20101;-64
2022/08/05 02:52:52;;;;;;;13.45;5.87;;;;;;;;;;4235049;33;20181;-64
2022/08/05 02:55:18;;;;;;;16.05;6.05;;;;;;;;;;4234957;33;20121;-64
2022/08/05 02:57:44;;;;;;;15.13;6.07;;;;;;;;;;4234776;33;20531;-64
2022/08/05 03:00:11;;;;;;;13.20;5.50;;;;;;;;;;4234750;33;20212;-64
2022/08/05 03:02:39;;;;;;;10.10;6.12;;;;;;;;;;4234998;33;20128;-64
2022/08/05 03:05:08;;;;;;;8.68;5.62;;;;;;;;;;4234734;33;20117;-64
2022/08/05 03:07:34;;;;;;;10.40;5.43;;;;;;;;;;4247646;33;20101;-64
2022/08/05 03:10:00;;;;;;;9.60;6.07;;;;;;;;;;4247710;33;20548;-64
2022/08/05 03:12:35;;;;;;;14.60;5.70;;;;;;;;;;4234885;33;20105;-64
2022/08/05 03:15:02;;;;;;;7.25;5.03;;;;;;;;;;4234596;33;20508;-70
2022/08/05 03:17:28;;;;;;;12.20;5.82;;;;;;;;;;4247313;33;20564;-68
2022/08/05 03:19:54;;;;;;;19.77;6.15;;;;;;;;;;4246789;33;20128;-68
2022/08/05 03:22:20;;;;;;;14.77;6.03;;;;;;;;;;4247493;33;20108;-68
2022/08/05 03:24:47;;;;;;;12.02;6.20;;;;;;;;;;4243596;33;20227;-68
2022/08/05 03:27:14;;;;;;;16.75;7.28;;;;;;;;;;4221179;33;20208;-69
2022/08/05 03:29:40;;;;;;;19.42;6.90;;;;;;;;;;4219296;33;20120;-68
2022/08/05 03:32:10;;;;;;;12.93;7.03;;;;;;;;;;4225359;33;20184;-72
2022/08/05 03:34:36;;;;;;;27.95;8.25;;;;;;;;;;4234259;33;20101;-67
2022/08/05 03:37:03;;;;;;;11.93;6.90;;;;;;;;;;4234595;33;20116;-67
2022/08/05 03:39:29;;;;;;;12.70;7.45;;;;;;;;;;4221745;33;20120;-67
2022/08/05 03:41:56;;;;;;;16.98;7.37;;;;;;;;;;4243713;33;20155;-66
2022/08/05 03:44:22;;;;;;;11.10;7.28;;;;;;;;;;4235351;33;20565;-66
2022/08/05 03:46:48;;;;;;;17.77;7.50;;;;;;;;;;4243932;33;20092;-69
2022/08/05 03:49:15;;;;;;;12.23;8.70;;;;;;;;;;4221806;33;20196;-68
2022/08/05 03:51:56;;;;;;;16.23;8.50;;;;;;;;;;4233350;33;20078;-68
2022/08/05 03:54:30;;;;;;;12.15;8.32;;;;;;;;;;4239683;33;20187;-68
2022/08/05 03:56:58;;;;;;;21.15;8.77;;;;;;;;;;4220204;33;20204;-68
2022/08/05 03:59:29;;;;;;;12.98;8.57;;;;;;;;;;4238010;33;20101;-68
2022/08/05 04:01:55;;;;;;;17.65;10.05;;;;;;;;;;4226586;33;20478;-67
2022/08/05 04:04:22;;;;;;;10.85;7.95;;;;;;;;;;4231722;33;20113;-66
2022/08/05 04:06:49;;;;;;;19.17;9.55;;;;;;;;;;4231719;33;20113;-67
2022/08/05 04:09:15;;;;;;;17.75;9.85;;;;;;;;;;4231661;33;20108;-67
2022/08/05 04:11:41;;;;;;;13.55;8.75;;;;;;;;;;4231779;33;20119;-67
2022/08/05 04:14:07;;;;;;;19.95;10.57;;;;;;;;;;4233153;33;20122;-67
2022/08/05 04:16:36;;;;;;;19.52;10.55;;;;;;;;;;4233935;33;20531;-66
2022/08/05 04:19:03;;;;;;;18.12;9.07;;;;;;;;;;4233971;33;20100;-67
2022/08/05 04:21:30;;;;;;;12.68;8.98;;;;;;;;;;4246591;33;20251;-68
2022/08/05 04:23:59;;;;;;;17.08;9.52;;;;;;;;;;4198327;33;20112;-69
2022/08/05 04:26:25;;;;;;;22.33;10.30;;;;;;;;;;4246252;33;20976;-71
2022/08/05 04:28:51;;;;;;;21.70;11.27;;;;;;;;;;4222195;33;20092;-69
2022/08/05 04:31:19;;;;;;;22.92;11.90;;;;;;;;;;4234170;33;20093;-69
2022/08/05 04:33:45;;;;;;;26.55;11.10;;;;;;;;;;4215930;33;20108;-65
2022/08/05 04:36:12;;;;;;;28.52;13.02;;;;;;;;;;4244716;33;20103;-66
2022/08/05 04:38:38;;;;;;;25.17;13.40;;;;;;;;;;4229785;33;20112;-66
2022/08/05 04:41:04;;;;;;;31.35;12.68;;;;;;;;;;4246594;33;20092;-67
2022/08/05 04:43:30;;;;;;;30.80;11.93;;;;;;;;;;4222134;33;20108;-66
2022/08/05 04:45:56;;;;;;;37.83;13.02;;;;;;;;;;4247086;33;20528;-66
2022/08/05 04:48:22;;;;;;;32.97;13.90;;;;;;;;;;4222064;33;20164;-69
2022/08/05 04:50:49;;;;;;;31.80;12.35;;;;;;;;;;4233641;33;20117;-70
2022/08/05 04:53:16;;;;;;;33.50;12.07;;;;;;;;;;4247177;33;20437;-74
2022/08/05 04:55:43;;;;;;;32.30;13.27;;;;;;;;;;4246990;33;20127;-73
2022/08/05 04:58:11;;;;;;;40.60;13.05;;;;;;;;;;4246893;33;20560;-71
2022/08/05 05:00:38;;;;;;;35.97;11.73;;;;;;;;;;4218082;33;20124;-70
2022/08/05 05:03:05;;;;;;;40.17;13.75;;;;;;;;;;4229761;33;20180;-70
2022/08/05 05:05:31;;;;;;;39.67;12.75;;;;;;;;;;4243297;33;20133;-70
2022/08/05 05:08:01;;;;;;;31.10;11.25;;;;;;;;;;4224586;33;20113;-71
2022/08/05 05:10:28;;;;;;;26.83;12.23;;;;;;;;;;4231411;33;20597;-69
2022/08/05 05:12:54;;;;;;;30.08;12.25;;;;;;;;;;4214074;33;20101;-68
2022/08/05 05:15:20;;;;;;;41.53;12.43;;;;;;;;;;4240305;33;20120;-72
2022/08/05 05:17:46;;;;;;;37.15;12.88;;;;;;;;;;4245542;33;20124;-72
2022/08/05 05:20:12;;;;;;;38.75;12.98;;;;;;;;;;4233659;33;20211;-72
2022/08/05 05:22:39;;;;;;;42.30;12.48;;;;;;;;;;4221799;33;20195;-72
2022/08/05 05:25:06;;;;;;;43.45;13.27;;;;;;;;;;4221965;33;20108;-67
2022/08/05 05:27:33;;;;;;;40.63;15.02;;;;;;;;;;4246697;33;20092;-73
2022/08/05 05:29:59;;;;;;;33.80;15.07;;;;;;;;;;4221702;33;20545;-73
2022/08/05 05:32:25;;;;;;;40.80;15.32;;;;;;;;;;4243450;33;20536;-71
2022/08/05 05:34:51;;;;;;;30.40;14.13;;;;;;;;;;4227192;33;20201;-67
2022/08/05 05:37:17;;;;;;;41.42;13.73;;;;;;;;;;4227443;33;20504;-72
2022/08/05 05:39:43;;;;;;;31.87;14.07;;;;;;;;;;4246578;33;20100;-70
2022/08/05 05:42:09;;;;;;;32.30;17.87;;;;;;;;;;4221870;33;20228;-73
2022/08/05 05:44:35;;;;;;;39.17;17.80;;;;;;;;;;4246510;33;20131;-71
2022/08/05 05:47:01;;;;;;;42.08;19.80;;;;;;;;;;4221372;33;20103;-72
2022/08/05 05:49:27;;;;;;;36.45;19.67;;;;;;;;;;4246301;33;20227;-72
2022/08/05 05:51:54;;;;;;;37.95;17.02;;;;;;;;;;4245736;33;20523;-72
2022/08/05 05:54:21;;;;;;;36.13;19.30;;;;;;;;;;4233303;33;20102;-72
2022/08/05 05:56:47;;;;;;;43.38;19.35;;;;;;;;;;4230890;33;20129;-72
2022/08/05 05:59:13;;;;;;;38.00;16.95;;;;;;;;;;4218957;33;20093;-66
2022/08/05 06:01:41;;;;;;;31.45;16.15;;;;;;;;;;4221473;33;20121;-70
2022/08/05 06:04:11;;;;;;;34.15;15.63;;;;;;;;;;4232398;33;20109;-73
2022/08/05 06:06:38;;;;;;;32.25;17.98;;;;;;;;;;4221287;33;20111;-71
2022/08/05 06:09:05;;;;;;;35.15;21.00;;;;;;;;;;4209844;33;20555;-72
2022/08/05 06:11:32;;;;;;;35.67;18.98;;;;;;;;;;4217274;33;20118;-71
2022/08/05 06:13:59;;;;;;;34.83;19.00;;;;;;;;;;4209732;33;20176;-71
2022/08/05 06:16:26;;;;;;;44.50;20.52;;;;;;;;;;4220657;33;20112;-71
2022/08/05 06:18:52;;;;;;;35.10;19.50;;;;;;;;;;4233224;33;20116;-72
2022/08/05 06:21:18;;;;;;;41.25;21.37;;;;;;;;;;4218781;33;20597;-72
2022/08/05 06:23:44;;;;;;;45.78;22.30;;;;;;;;;;4208044;33;20464;-71
2022/08/05 06:26:11;;;;;;;38.60;21.17;;;;;;;;;;4231799;33;20559;-74
2022/08/05 06:28:37;;;;;;;44.03;20.77;;;;;;;;;;4207544;33;20600;-73
2022/08/05 06:31:03;;;;;;;43.17;21.45;;;;;;;;;;4218125;33;20124;-74
2022/08/05 06:33:30;;;;;;;39.67;22.13;;;;;;;;;;4196215;33;20212;-74
2022/08/05 06:35:56;;;;;;;46.30;22.92;;;;;;;;;;4195372;33;20094;-73
2022/08/05 06:38:22;;;;;;;43.45;25.73;;;;;;;;;;4219274;33;20454;-75
2022/08/05 06:40:48;;;;;;;53.60;24.98;;;;;;;;;;4216714;33;20111;-75
2022/08/05 06:43:14;;;;;;;59.35;26.50;;;;;;;;;;4209538;33;20105;-73
2022/08/05 06:45:41;;;;;;;54.35;24.90;;;;;;;;;;4207084;33;20181;-76
2022/08/05 06:48:08;;;;;;;50.15;23.30;;;;;;;;;;4231867;33;20449;-75
2022/08/05 06:50:34;;;;;;;49.72;25.48;;;;;;;;;;4224237;33;20124;-72
2022/08/05 06:53:01;;;;;;;59.03;26.87;;;;;;;;;;4226427;33;20121;-74
2022/08/05 06:55:27;;;;;;;61.35;29.12;;;;;;;;;;4209592;33;20092;-74
2022/08/05 06:57:53;;;;;;;57.17;26.48;;;;;;;;;;4232857;33;20509;-76
2022/08/05 07:00:19;;;;;;;51.10;26.73;;;;;;;;;;4244096;33;20216;-75
2022/08/05 07:02:48;;;;;;;42.35;24.25;;;;;;;;;;4221337;33;20108;-76
2022/08/05 07:05:15;;;;;;;45.70;19.65;;;;;;;;;;4247060;33;20101;-75
2022/08/05 07:07:47;;;;;;;44.33;19.02;;;;;;;;;;4211416;33;20461;-73
2022/08/05 07:10:13;;;;;;;38.92;17.85;;;;;;;;;;4223171;33;20120;-73
2022/08/05 07:18:10;;;;;;;33.33;14.10;;;;;;;;;;4220854;33;20129;-71
2022/08/05 07:20:36;;;;;;;36.33;14.35;;;;;;;;;;4214488;33;20105;-73
2022/08/05 07:23:02;;;;;;;33.03;14.00;;;;;;;;;;4226410;33;20180;-76
2022/08/05 07:25:28;;;;;;;28.70;12.35;;;;;;;;;;4234769;33;20487;-73
2022/08/05 07:27:55;;;;;;;33.20;15.02;;;;;;;;;;4247747;33;20587;-74
2022/08/05 07:30:21;;;;;;;26.30;11.20;;;;;;;;;;4247703;33;20211;-74
2022/08/05 07:32:47;;;;;;;22.98;10.15;;;;;;;;;;4234765;33;20512;-73
2022/08/05 07:35:14;;;;;;;14.32;7.43;;;;;;;;;;4247631;33;20639;-73
2022/08/05 07:37:40;;;;;;;13.90;6.93;;;;;;;;;;4234907;33;20092;-73
2022/08/05 07:40:07;;;;;;;11.68;6.90;;;;;;;;;;4222703;33;20127;-71
2022/08/05 07:42:33;;;;;;;14.80;6.90;;;;;;;;;;4247844;33;20116;-73
2022/08/05 07:44:59;;;;;;;35.20;9.30;;;;;;;;;;4234550;33;20124;-73
2022/08/05 07:47:25;;;;;;;24.05;7.95;;;;;;;;;;4246151;33;20116;-73
2022/08/05 07:49:52;;;;;;;19.95;8.27;;;;;;;;;;4234226;33;20111;-72
2022/08/05 07:52:18;;;;;;;21.30;8.52;;;;;;;;;;4247180;33;20130;-73
2022/08/05 07:54:45;;;;;;;24.55;9.80;;;;;;;;;;4233888;33;20115;-73
2022/08/05 07:57:14;;;;;;;16.87;9.65;;;;;;;;;;4247408;33;20143;-71
2022/08/05 07:59:40;;;;;;;17.15;6.82;;;;;;;;;;4247353;33;20211;-72
2022/08/05 08:02:10;;;;;;;10.10;4.65;;;;;;;;;;4256170;33;20556;-64
2022/08/05 08:04:36;;;;;;;8.98;5.40;;;;;;;;;;4245791;33;20100;-66
2022/08/05 08:07:02;;;;;;;11.55;5.80;;;;;;;;;;4244403;33;20144;-64
2022/08/05 08:09:28;;;;;;;17.27;6.10;;;;;;;;;;4230844;33;20949;-65
2022/08/05 08:11:54;;;;;;;13.13;5.70;;;;;;;;;;4245665;33;20222;-65
2022/08/05 08:14:20;;;;;;;11.52;6.07;;;;;;;;;;4244793;33;20207;-65
2022/08/05 08:16:46;;;;;;;11.15;5.60;;;;;;;;;;4243475;33;20101;-64
2022/08/05 08:19:12;;;;;;;14.35;5.93;;;;;;;;;;4243912;33;20215;-65
2022/08/05 08:21:38;;;;;;;16.77;7.47;;;;;;;;;;4244150;33;20545;-64
2022/08/05 08:24:04;;;;;;;14.45;6.07;;;;;;;;;;4243857;33;20128;-64
2022/08/05 08:26:31;;;;;;;18.37;6.00;;;;;;;;;;4219361;33;20127;-64
2022/08/05 08:28:59;;;;;;;16.77;6.78;;;;;;;;;;4230693;33;20108;-63
2022/08/05 08:31:25;;;;;;;14.82;5.80;;;;;;;;;;4244612;33;20215;-66
2022/08/05 08:33:51;;;;;;;7.10;4.47;;;;;;;;;;4234010;33;20140;-64
2022/08/05 08:36:18;;;;;;;10.13;5.20;;;;;;;;;;4244582;33;20128;-64
2022/08/05 08:38:43;;;;;;;7.15;4.53;;;;;;;;;;4246126;33;20116;-65
2022/08/05 08:41:10;;;;;;;6.25;4.18;;;;;;;;;;4246867;33;20572;-63
2022/08/05 08:43:37;;;;;;;12.85;4.87;;;;;;;;;;4247142;33;20101;-65
2022/08/05 08:46:04;;;;;;;11.00;4.03;;;;;;;;;;4246970;33;20107;-64
2022/08/05 08:48:30;;;;;;;10.13;4.57;;;;;;;;;;4234134;33;20112;-65
2022/08/05 08:50:57;;;;;;;17.73;4.65;;;;;;;;;;4247356;33;20116;-64
2022/08/05 08:53:23;;;;;;;10.95;4.10;;;;;;;;;;4233855;33;20100;-65
2022/08/05 08:55:50;;;;;;;11.82;5.05;;;;;;;;;;4233913;33;20092;-67
2022/08/05 08:58:16;;;;;;;11.85;4.97;;;;;;;;;;4246920;33;20124;-63
2022/08/05 09:00:42;;;;;;;11.65;4.32;;;;;;;;;;4221933;33;20528;-64
2022/08/05 09:03:10;;;;;;;14.20;5.03;;;;;;;;;;4233897;33;20108;-65
2022/08/05 09:05:36;;;;;;;10.98;5.45;;;;;;;;;;4246593;33;20093;-66
2022/08/05 09:08:02;;;;;;;17.25;9.70;;;;;;;;;;4233392;33;20540;-66
2022/08/05 09:10:28;;;;;;;16.37;8.80;;;;;;;;;;4246778;33;20113;-66
2022/08/05 09:12:55;;;;;;;12.52;5.45;;;;;;;;;;4246730;33;20469;-65
2022/08/05 09:15:21;;;;;;;8.77;4.87;;;;;;;;;;4233791;33;20216;-66
2022/08/05 09:17:48;;;;;;;8.40;4.65;;;;;;;;;;4246974;33;20124;-66
2022/08/05 09:20:14;;;;;;;8.65;4.43;;;;;;;;;;4233438;33;20540;-66
2022/08/05 09:23:03;;;;;;;8.75;4.60;;;;;;;;;;4246980;33;20123;-66
2022/08/05 09:25:29;;;;;;;9.65;4.68;;;;;;;;;;4246901;33;20113;-65
2022/08/05 09:27:55;;;;;;;10.32;4.82;;;;;;;;;;4233640;33;20212;-66
2022/08/05 09:30:21;;;;;;;10.50;5.37;;;;;;;;;;4246714;33;20510;-66
2022/08/05 09:32:48;;;;;;;13.05;5.28;;;;;;;;;;4246571;33;20131;-66
2022/08/05 09:35:15;;;;;;;8.90;5.55;;;;;;;;;;4246298;33;20254;-66
2022/08/05 09:37:52;;;;;;;8.43;5.55;;;;;;;;;;4246481;33;20121;-65
2022/08/05 09:40:41;;;;;;;6.87;4.87;;;;;;;;;;4246463;33;20101;-66
2022/08/05 09:43:09;;;;;;;6.10;4.18;;;;;;;;;;4246431;33;20632;-65
2022/08/05 09:45:35;;;;;;;6.35;3.37;;;;;;;;;;4233426;33;20097;-68
2022/08/05 09:48:18;;;;;;;5.05;3.28;;;;;;;;;;4233170;33;20131;-66
2022/08/05 09:50:48;;;;;;;4.85;3.05;;;;;;;;;;4246409;33;20537;-66
2022/08/05 09:53:14;;;;;;;10.15;3.22;;;;;;;;;;4246616;33;20651;-65
2022/08/05 09:55:40;;;;;;;8.00;3.58;;;;;;;;;;4233100;33;20629;-66
2022/08/05 09:58:14;;;;;;;4.95;3.40;;;;;;;;;;4246280;33;20111;-65
2022/08/05 10:00:52;;;;;;;6.55;3.17;;;;;;;;;;4233405;33;20093;-65
2022/08/05 10:03:18;;;;;;;8.60;3.37;;;;;;;;;;4246358;33;20187;-66
2022/08/05 10:05:44;;;;;;;6.93;3.50;;;;;;;;;;4246314;33;20092;-66
2022/08/05 10:08:10;;;;;;;7.68;3.08;;;;;;;;;;4233449;33;20544;-66
2022/08/05 10:10:37;;;;;;;6.45;2.62;;;;;;;;;;4246078;33;20523;-66
2022/08/05 10:13:03;;;;;;;5.05;2.80;;;;;;;;;;4244973;33;20097;-66
2022/08/05 10:15:38;;;;;;;3.97;2.80;;;;;;;;;;4221059;33;20116;-66
2022/08/05 10:18:05;;;;;;;8.68;2.90;;;;;;;;;;4232970;33;20108;-66
2022/08/05 10:20:33;;;;;;;10.55;3.05;;;;;;;;;;4245742;33;20112;-67
2022/08/05 10:22:59;;;;;;;5.30;2.42;;;;;;;;;;4233074;33;20116;-66
2022/08/05 10:25:26;;;;;;;4.87;2.47;;;;;;;;;;4246233;33;20105;-66
2022/08/05 10:27:52;;;;;;;7.45;2.70;;;;;;;;;;4233017;33;20123;-66
2022/08/05 10:30:19;;;;;;;3.28;2.65;;;;;;;;;;4233267;33;20135;-67
2022/08/05 10:32:46;;;;;;;4.05;2.45;;;;;;;;;;4233098;33;20115;-66
2022/08/05 10:35:13;;;;;;;3.40;2.53;;;;;;;;;;4232519;33;20109;-66
2022/08/05 10:37:40;;;;;;;5.68;2.90;;;;;;;;;;4233104;33;20211;-65
2022/08/05 10:40:14;;;;;;;10.88;2.87;;;;;;;;;;4222790;33;20097;-67
2022/08/05 10:42:42;;;;;;;6.85;3.85;;;;;;;;;;4235146;33;20101;-65
2022/08/05 10:45:08;;;;;;;8.18;5.32;;;;;;;;;;4247821;33;20295;-66
2022/08/05 10:47:39;;;;;;;11.45;6.37;;;;;;;;;;4235101;33;20132;-66
2022/08/05 10:50:14;;;;;;;8.23;5.22;;;;;;;;;;4235134;33;20124;-66
2022/08/05 10:52:42;;;;;;;12.20;6.18;;;;;;;;;;4248012;33;20128;-67
2022/08/05 10:55:10;;;;;;;13.18;5.53;;;;;;;;;;4247891;33;20141;-67
2022/08/05 10:57:40;;;;;;;9.10;5.37;;;;;;;;;;4247982;33;20140;-65
2022/08/05 11:00:25;;;;;;;13.90;5.57;;;;;;;;;;4247790;33;20104;-67
2022/08/05 11:03:06;;;;;;;9.63;5.43;;;;;;;;;;4234686;33;20140;-67
2022/08/05 11:05:33;;;;;;;9.25;5.25;;;;;;;;;;4247649;33;20623;-65
2022/08/05 11:08:05;;;;;;;9.13;4.95;;;;;;;;;;4247744;33;20117;-66
2022/08/05 11:10:32;;;;;;;7.85;5.07;;;;;;;;;;4247671;33;20121;-66
2022/08/05 11:12:59;;;;;;;8.45;4.40;;;;;;;;;;4247964;33;20577;-66
2022/08/05 11:15:32;;;;;;;9.45;4.95;;;;;;;;;;4247601;33;20126;-66
2022/08/05 11:18:13;;;;;;;7.10;4.30;;;;;;;;;;4248040;33;20101;-66
2022/08/05 11:20:46;;;;;;;9.48;4.75;;;;;;;;;;4247832;33;20639;-67
2022/08/05 11:23:35;;;;;;;12.23;4.70;;;;;;;;;;4247662;33;20123;-66
2022/08/05 11:26:08;;;;;;;10.45;5.05;;;;;;;;;;4234644;33;20112;-66
2022/08/05 11:28:34;;;;;;;3.58;3.00;;;;;;;;;;4247681;33;20115;-66
2022/08/05 11:31:04;;;;;;;3.55;2.67;;;;;;;;;;4247733;33;20116;-70
2022/08/05 11:33:37;;;;;;;4.60;3.33;;;;;;;;;;4234432;33;20523;-70
2022/08/05 11:36:05;;;;;;;10.90;4.65;;;;;;;;;;4247400;33;20215;-68
2022/08/05 11:38:40;;;;;;;7.93;4.53;;;;;;;;;;4234398;33;20215;-68
2022/08/05 11:41:17;;;;;;;13.82;3.40;;;;;;;;;;4247590;33;20478;-68
2022/08/05 11:43:51;;;;;;;5.60;3.65;;;;;;;;;;4247789;33;20101;-68
2022/08/05 11:46:24;;;;;;;5.53;4.00;;;;;;;;;;4247617;33;20530;-68
2022/08/05 11:48:50;;;;;;;4.72;3.47;;;;;;;;;;4234117;33;20081;-70
2022/08/05 11:51:16;;;;;;;6.40;3.72;;;;;;;;;;4233586;33;20109;-70
2022/08/05 11:53:43;;;;;;;5.28;3.28;;;;;;;;;;4247449;33;20099;-70
2022/08/05 11:56:09;;;;;;;5.37;3.60;;;;;;;;;;4234414;33;20183;-70
2022/08/05 11:58:40;;;;;;;4.57;3.20;;;;;;;;;;4233963;33;20109;-70
2022/08/05 12:01:07;;;;;;;6.57;3.35;;;;;;;;;;4247284;33;20135;-63
2022/08/05 12:03:54;;;;;;;6.90;3.47;;;;;;;;;;4234331;33;20658;-67
2022/08/05 12:06:24;;;;;;;4.57;3.25;;;;;;;;;;4234031;33;20139;-65
2022/08/05 12:08:53;;;;;;;6.20;3.70;;;;;;;;;;4247140;33;20099;-66
2022/08/05 12:11:20;;;;;;;3.70;2.85;;;;;;;;;;4247490;33;20120;-67
2022/08/05 12:14:01;;;;;;;7.60;3.37;;;;;;;;;;4234231;33;20129;-63
2022/08/05 12:16:33;;;;;;;9.63;4.15;;;;;;;;;;4208462;33;20521;-64
2022/08/05 12:18:59;;;;;;;9.85;3.00;;;;;;;;;;4232744;33;20141;-64
2022/08/05 12:21:30;;;;;;;10.50;3.58;;;;;;;;;;4233041;33;20121;-66
2022/08/05 12:24:16;;;;;;;12.10;2.83;;;;;;;;;;4220026;33;20139;-64
2022/08/05 12:26:50;;;;;;;12.10;3.42;;;;;;;;;;4232974;33;20096;-64
2022/08/05 12:29:34;;;;;;;2.80;2.40;;;;;;;;;;4220216;33;20473;-66
2022/08/05 12:32:00;;;;;;;3.60;2.60;;;;;;;;;;4233066;33;20132;-68
2022/08/05 12:34:29;;;;;;;6.20;3.00;;;;;;;;;;4231182;33;20121;-65
2022/08/05 12:37:10;;;;;;;4.95;3.20;;;;;;;;;;4219985;33;20101;-65
2022/08/05 12:39:39;;;;;;;3.65;2.75;;;;;;;;;;4220384;33;20505;-66
2022/08/05 12:42:11;;;;;;;13.98;3.35;;;;;;;;;;4232965;33;20129;-67
2022/08/05 12:44:37;;;;;;;5.10;2.67;;;;;;;;;;4232788;33;20200;-65
2022/08/05 12:47:03;;;;;;;10.10;3.45;;;;;;;;;;4232794;33;20116;-65
2022/08/05 12:49:39;;;;;;;10.35;3.03;;;;;;;;;;4232728;33;20556;-65
2022/08/05 12:52:12;;;;;;;3.90;3.05;;;;;;;;;;4233120;33;20176;-66
2022/08/05 12:54:39;;;;;;;5.57;2.40;;;;;;;;;;4232846;33;20517;-65
2022/08/05 12:57:06;;;;;;;6.30;2.55;;;;;;;;;;4232870;33;20608;-65
2022/08/05 12:59:44;;;;;;;4.25;3.05;;;;;;;;;;4219677;33;20125;-65
2022/08/05 13:02:11;;;;;;;5.32;2.95;;;;;;;;;;4232490;33;20461;-65
2022/08/05 13:04:40;;;;;;;5.12;2.42;;;;;;;;;;4232712;33;20104;-65
2022/08/05 13:07:11;;;;;;;5.53;2.65;;;;;;;;;;4219938;33;20569;-66
2022/08/05 13:09:42;;;;;;;3.33;2.30;;;;;;;;;;4232760;33;20117;-64
2022/08/05 13:12:13;;;;;;;4.25;2.83;;;;;;;;;;4232778;33;20548;-65
2022/08/05 13:14:48;;;;;;;4.07;2.65;;;;;;;;;;4236089;33;20446;-73
2022/08/05 13:17:14;;;;;;;6.30;2.60;;;;;;;;;;4246758;33;20112;-66
2022/08/05 13:19:41;;;;;;;4.05;2.92;;;;;;;;;;4246621;33;20104;-66
2022/08/05 13:22:07;;;;;;;5.25;2.90;;;;;;;;;;4246826;33;20590;-64
2022/08/05 13:24:33;;;;;;;3.62;2.75;;;;;;;;;;4246552;33;20120;-63
2022/08/05 13:26:59;;;;;;;4.78;2.83;;;;;;;;;;4246778;33;20571;-66
2022/08/05 13:29:25;;;;;;;5.68;3.03;;;;;;;;;;4233231;33;20120;-65
2022/08/05 13:31:51;;;;;;;4.43;2.67;;;;;;;;;;4246617;33;20209;-65
2022/08/05 13:34:17;;;;;;;6.65;2.83;;;;;;;;;;4246467;33;20521;-67
2022/08/05 13:36:43;;;;;;;4.90;3.03;;;;;;;;;;4233374;33;20109;-72
2022/08/05 13:39:10;;;;;;;10.85;3.80;;;;;;;;;;4233547;33;20202;-65
2022/08/05 13:41:36;;;;;;;5.87;2.95;;;;;;;;;;4246520;33;20093;-64
2022/08/05 13:44:02;;;;;;;6.68;2.97;;;;;;;;;;4246290;33;20097;-66
2022/08/05 13:46:29;;;;;;;3.50;2.90;;;;;;;;;;4246307;33;20092;-64
2022/08/05 13:48:55;;;;;;;4.03;2.95;;;;;;;;;;4243999;33;20532;-66
2022/08/05 13:51:32;;;;;;;6.18;2.83;;;;;;;;;;4246343;33;20549;-63
2022/08/05 13:53:58;;;;;;;3.40;2.75;;;;;;;;;;4246413;33;20117;-65
2022/08/05 13:56:24;;;;;;;5.28;2.78;;;;;;;;;;4246270;33;20116;-66
2022/08/05 13:58:50;;;;;;;5.57;3.00;;;;;;;;;;4246328;33;20218;-65
2022/08/05 14:01:16;;;;;;;3.33;2.70;;;;;;;;;;4246418;33;20115;-65
2022/08/05 14:03:42;;;;;;;5.93;2.85;;;;;;;;;;4246272;33;20541;-69
2022/08/05 14:06:08;;;;;;;7.55;4.37;;;;;;;;;;4246181;33;20217;-65
2022/08/05 14:08:35;;;;;;;4.50;3.10;;;;;;;;;;4233082;33;20195;-64
2022/08/05 14:11:01;;;;;;;6.05;2.83;;;;;;;;;;4246010;33;20561;-66
2022/08/05 14:13:27;;;;;;;10.60;2.90;;;;;;;;;;4245600;33;20133;-64
2022/08/05 14:15:53;;;;;;;6.68;2.62;;;;;;;;;;4245660;33;20120;-65
2022/08/05 14:18:18;;;;;;;4.57;3.08;;;;;;;;;;4246038;33;20218;-64
2022/08/05 14:20:46;;;;;;;6.32;2.78;;;;;;;;;;4245980;33;20108;-65
2022/08/05 14:23:12;;;;;;;4.72;2.70;;;;;;;;;;4246053;33;20124;-65
2022/08/05 14:25:37;;;;;;;2.65;2.40;;;;;;;;;;4245849;33;20138;-65
2022/08/05 14:28:04;;;;;;;6.10;2.62;;;;;;;;;;4246158;33;20132;-64
2022/08/05 14:30:30;;;;;;;5.05;2.58;;;;;;;;;;4245953;33;20583;-65
2022/08/05 14:32:55;;;;;;;2.78;2.33;;;;;;;;;;4245105;33;20105;-64
2022/08/05 14:35:22;;;;;;;2.90;2.60;;;;;;;;;;4245855;33;20199;-64
2022/08/05 14:37:48;;;;;;;6.80;2.97;;;;;;;;;;4246035;33;20116;-64
2022/08/05 14:40:14;;;;;;;5.55;3.10;;;;;;;;;;4246051;33;20517;-65
2022/08/05 14:42:40;;;;;;;2.97;2.67;;;;;;;;;;4245856;33;20180;-64
2022/08/05 14:45:07;;;;;;;6.82;3.58;;;;;;;;;;4245718;33;20100;-65
2022/08/05 14:47:33;;;;;;;6.35;3.05;;;;;;;;;;4245704;33;20127;-65
2022/08/05 14:49:59;;;;;;;5.50;2.97;;;;;;;;;;4245697;33;20195;-65
2022/08/05 14:52:25;;;;;;;7.18;2.70;;;;;;;;;;4245803;33;20112;-65
2022/08/05 14:54:51;;;;;;;7.03;3.35;;;;;;;;;;4245375;33;20104;-64
2022/08/05 14:57:17;;;;;;;3.10;2.80;;;;;;;;;;4245691;33;20096;-65
2022/08/05 14:59:43;;;;;;;3.35;2.70;;;;;;;;;;4245617;33;20117;-64
2022/08/05 15:02:09;;;;;;;7.18;4.05;;;;;;;;;;4245643;33;20093;-65
2022/08/05 15:04:35;;;;;;;6.93;3.60;;;;;;;;;;4245531;33;20497;-65
2022/08/05 15:07:01;;;;;;;6.53;3.33;;;;;;;;;;4245720;33;20104;-64
2022/08/05 15:09:27;;;;;;;9.52;3.50;;;;;;;;;;4245701;33;20128;-64
2022/08/05 15:11:53;;;;;;;9.88;3.47;;;;;;;;;;4245528;33;20196;-64